Time;durP1;ratioP1;P1;durP2;ratioP2;P2;SDS_P1;SDS_P2;PMS_P1;PMS_P2;Temp;Humidity;BMP_temperature;BMP_pressure;BME280_temperature;BME280_humidity;BME280_pressure;Samples;Min_cycle;Max_cycle;Signal;HPM_P1;HPM_P2
2023/05/22 00:00:19;;;;;;;24.45;17.33;;;13.90;99.90;;;;;;6118629;23;20026;-91
2023/05/22 00:03:07;;;;;;;21.95;17.45;;;13.90;99.90;;;;;;6109035;23;20022;-91
2023/05/22 00:05:57;;;;;;;22.60;17.42;;;13.90;99.90;;;;;;6108476;23;20036;-91
2023/05/22 00:08:45;;;;;;;24.80;17.73;;;13.90;99.90;;;;;;6107141;23;20030;-91
2023/05/22 00:11:34;;;;;;;26.88;18.08;;;13.90;99.90;;;;;;6106887;23;20565;-89
2023/05/22 00:14:22;;;;;;;22.05;16.60;;;13.80;99.90;;;;;;6127910;23;20030;-89
2023/05/22 00:17:13;;;;;;;21.48;17.25;;;13.80;99.90;;;;;;6107697;23;20034;-89
2023/05/22 00:20:10;;;;;;;21.40;17.85;;;13.70;1.00;;;;;;6129448;23;20433;-90
2023/05/22 00:23:00;;;;;;;20.40;17.10;;;13.70;1.00;;;;;;6128680;23;20022;-89
2023/05/22 00:25:49;;;;;;;21.45;17.08;;;13.70;1.00;;;;;;6106990;23;20030;-89
2023/05/22 00:28:36;;;;;;;21.65;17.17;;;13.60;1.00;;;;;;6088298;23;20092;-89
2023/05/22 00:31:24;;;;;;;24.00;18.48;;;13.60;1.00;;;;;;6128406;23;20033;-88
2023/05/22 00:34:13;;;;;;;21.50;17.98;;;13.50;14.60;;;;;;6108834;23;20117;-90
2023/05/22 00:37:01;;;;;;;25.98;18.08;;;13.40;99.90;;;;;;6139114;23;20026;-88
2023/05/22 00:39:48;;;;;;;21.73;17.77;;;13.30;99.90;;;;;;6108006;23;20104;-91
2023/05/22 00:42:35;;;;;;;21.75;17.95;;;13.40;99.90;;;;;;6106259;23;20026;-90
2023/05/22 00:45:23;;;;;;;25.38;18.00;;;13.40;1.00;;;;;;6128177;23;20022;-90
2023/05/22 00:48:11;;;;;;;24.50;19.40;;;13.30;1.00;;;;;;6127238;23;20026;-90
2023/05/22 00:51:02;;;;;;;26.63;19.42;;;13.20;99.90;;;;;;6107684;23;20100;-90
2023/05/22 00:53:53;;;;;;;23.83;18.33;;;13.20;99.90;;;;;;6128954;23;20030;-90
2023/05/22 00:56:45;;;;;;;26.27;18.90;;;13.10;99.90;;;;;;6108141;23;20041;-91
2023/05/22 00:59:32;;;;;;;27.63;18.67;;;13.00;1.00;;;;;;6127278;23;20026;-90
2023/05/22 01:02:20;;;;;;;27.48;19.60;;;13.00;1.00;;;;;;6127119;23;20029;-91
2023/05/22 01:05:10;;;;;;;23.80;18.95;;;12.90;1.00;;;;;;6129037;23;20037;-91
2023/05/22 01:08:00;;;;;;;24.52;19.15;;;12.90;99.90;;;;;;6108064;23;20033;-91
2023/05/22 01:10:53;;;;;;;24.00;19.85;;;13.00;99.90;;;;;;6126811;23;20504;-90
2023/05/22 01:14:09;;;;;;;25.15;20.02;;;13.00;99.90;;;;;;6106022;23;20108;-91
2023/05/22 01:17:22;;;;;;;26.17;20.60;;;13.00;1.00;;;;;;6126925;23;20406;-90
2023/05/22 01:20:36;;;;;;;23.33;15.02;;;13.00;80.90;;;;;;6128164;23;20041;-89
2023/05/22 01:23:59;;;;;;;29.65;20.27;;;12.90;99.90;;;;;;6128403;23;20054;-89
2023/05/22 01:26:52;;;;;;;18.45;14.35;;;12.90;99.90;;;;;;6106692;23;20030;-89
2023/05/22 01:29:43;;;;;;;28.33;21.02;;;12.80;99.90;;;;;;6107235;23;20040;-90
2023/05/22 01:32:33;;;;;;;24.70;19.50;;;12.80;99.90;;;;;;6106861;23;20333;-89
2023/05/22 01:35:21;;;;;;;29.48;21.58;;;12.70;1.00;;;;;;6127081;23;20410;-89
2023/05/22 01:38:09;;;;;;;29.58;20.27;;;12.70;1.00;;;;;;6127846;23;20029;-90
2023/05/22 01:40:57;;;;;;;30.65;20.02;;;12.60;1.00;;;;;;6105480;23;20591;-89
2023/05/22 01:43:45;;;;;;;27.83;21.58;;;12.70;99.90;;;;;;6105845;23;20040;-89
2023/05/22 01:46:33;;;;;;;27.88;21.27;;;12.60;99.90;;;;;;6106427;23;20104;-90
2023/05/22 01:49:20;;;;;;;26.50;21.10;;;12.70;1.00;;;;;;6105592;23;20026;-88
2023/05/22 01:52:33;;;;;;;28.23;22.17;;;12.80;99.90;;;;;;6108044;23;20041;-89
2023/05/22 01:55:44;;;;;;;26.95;21.00;;;12.80;99.90;;;;;;6125401;23;20030;-90
2023/05/22 01:59:00;;;;;;;26.63;20.27;;;12.80;99.90;;;;;;6106689;23;20032;-88
2023/05/22 02:01:50;;;;;;;31.33;21.35;;;12.90;99.90;;;;;;6106500;23;20032;-90
2023/05/22 02:04:41;;;;;;;27.27;21.25;;;12.90;99.90;;;;;;6126629;23;20022;-90
2023/05/22 02:07:32;;;;;;;28.90;21.63;;;12.90;99.90;;;;;;6107169;23;20104;-90
2023/05/22 02:10:20;;;;;;;25.23;20.05;;;12.90;1.00;;;;;;6106414;23;20033;-89
2023/05/22 02:13:10;;;;;;;29.23;22.33;;;12.80;77.80;;;;;;6126891;23;20034;-90
2023/05/22 02:15:58;;;;;;;27.00;20.20;;;12.90;99.90;;;;;;6105176;23;20037;-91
2023/05/22 02:18:45;;;;;;;27.80;22.63;;;12.90;99.90;;;;;;6107417;23;20026;-89
2023/05/22 02:21:34;;;;;;;30.63;21.17;;;12.90;1.00;;;;;;6108562;23;20026;-89
2023/05/22 02:24:23;;;;;;;32.47;21.08;;;13.00;99.90;;;;;;6136156;23;20041;-90
2023/05/22 02:27:10;;;;;;;26.25;20.90;;;13.00;1.00;;;;;;6136657;23;20036;-89
2023/05/22 02:29:58;;;;;;;23.55;20.00;;;13.10;99.90;;;;;;6115990;23;20399;-90
2023/05/22 02:32:45;;;;;;;24.63;19.58;;;13.20;72.50;;;;;;6127144;23;20029;-90
2023/05/22 02:35:32;;;;;;;21.67;18.88;;;13.30;1.00;;;;;;6127997;23;20040;-91
2023/05/22 02:38:20;;;;;;;23.58;18.48;;;13.40;85.30;;;;;;6128832;23;20358;-90
2023/05/22 02:41:09;;;;;;;23.50;18.75;;;13.40;99.90;;;;;;6106912;23;20040;-91
2023/05/22 02:43:57;;;;;;;23.70;18.92;;;13.40;99.90;;;;;;6127017;23;20096;-89
2023/05/22 02:46:47;;;;;;;24.80;20.33;;;13.40;40.40;;;;;;6105382;23;20053;-89
2023/05/22 02:49:37;;;;;;;24.65;18.95;;;13.40;46.10;;;;;;6127881;23;20066;-89
2023/05/22 02:52:24;;;;;;;26.60;18.35;;;13.40;99.90;;;;;;6127031;23;20030;-89
2023/05/22 02:55:12;;;;;;;23.52;18.33;;;13.30;1.00;;;;;;6087922;23;20029;-91
2023/05/22 02:58:00;;;;;;;25.67;18.23;;;13.30;99.90;;;;;;6109385;23;20029;-88
2023/05/22 03:00:47;;;;;;;22.70;18.40;;;13.30;1.00;;;;;;6106337;23;20029;-88
2023/05/22 03:03:35;;;;;;;27.90;19.25;;;13.30;1.00;;;;;;6106851;23;20056;-90
2023/05/22 03:06:24;;;;;;;26.85;19.10;;;13.40;99.90;;;;;;6108095;23;20022;-90
2023/05/22 03:09:15;;;;;;;24.17;17.50;;;13.50;99.90;;;;;;6110905;23;20030;-89
2023/05/22 03:12:03;;;;;;;27.08;17.35;;;13.60;99.90;;;;;;6113400;23;20112;-90
2023/05/22 03:14:50;;;;;;;22.02;17.58;;;13.60;99.90;;;;;;6130887;23;20048;-90
2023/05/22 03:17:38;;;;;;;22.63;17.05;;;13.70;8.70;;;;;;6129760;23;20029;-90
2023/05/22 03:20:25;;;;;;;27.25;17.98;;;13.70;1.00;;;;;;6127605;23;20026;-88
2023/05/22 03:23:13;;;;;;;22.17;17.90;;;13.70;99.90;;;;;;6106978;23;20033;-90
2023/05/22 03:26:00;;;;;;;21.27;16.85;;;13.60;99.90;;;;;;6129283;23;20100;-90
2023/05/22 03:28:49;;;;;;;22.05;17.27;;;13.60;99.90;;;;;;6134689;23;20040;-91
2023/05/22 03:31:37;;;;;;;21.95;17.52;;;13.60;99.90;;;;;;6129638;23;20418;-90
2023/05/22 03:34:26;;;;;;;24.67;17.45;;;13.50;99.90;;;;;;6109611;23;20614;-90
2023/05/22 03:37:13;;;;;;;25.27;18.85;;;13.40;99.90;;;;;;6130858;23;20088;-91
2023/05/22 03:40:01;;;;;;;26.50;19.17;;;13.30;99.90;;;;;;6127938;23;20125;-89
2023/05/22 03:42:51;;;;;;;26.38;19.25;;;13.10;99.90;;;;;;6130806;23;20025;-89
2023/05/22 03:45:38;;;;;;;27.00;19.77;;;12.90;1.00;;;;;;6110325;23;20022;-90
2023/05/22 03:48:25;;;;;;;24.55;19.63;;;12.90;9.70;;;;;;6110100;23;20113;-90
2023/05/22 03:51:15;;;;;;;25.67;20.30;;;12.80;99.90;;;;;;6129855;23;20033;-90
2023/05/22 03:54:06;;;;;;;27.92;20.55;;;12.80;99.90;;;;;;6115417;23;20350;-89
2023/05/22 03:56:53;;;;;;;27.30;20.73;;;12.80;23.30;;;;;;6136622;23;20026;-89
2023/05/22 03:59:41;;;;;;;32.40;21.48;;;12.90;99.90;;;;;;6111140;23;20026;-87
2023/05/22 04:02:43;;;;;;;26.42;21.25;;;13.00;99.90;;;;;;6134759;23;20036;-89
2023/05/22 04:05:55;;;;;;;25.80;19.70;;;13.00;99.90;;;;;;6125361;23;20010;-91
2023/05/22 04:08:43;;;;;;;26.55;20.45;;;13.10;99.90;;;;;;6114362;23;20025;-90
2023/05/22 04:11:30;;;;;;;28.20;20.95;;;13.10;99.90;;;;;;6134927;23;20036;-90
2023/05/22 04:14:20;;;;;;;29.08;21.38;;;13.00;99.90;;;;;;6112249;23;20036;-91
2023/05/22 04:17:08;;;;;;;24.17;20.40;;;13.00;99.90;;;;;;6141513;23;20029;-90
2023/05/22 04:19:57;;;;;;;25.35;19.65;;;13.00;99.90;;;;;;6115607;23;20416;-89
2023/05/22 04:22:44;;;;;;;25.80;19.52;;;13.00;99.90;;;;;;6114571;23;20026;-90
2023/05/22 04:25:33;;;;;;;23.95;19.45;;;13.00;62.80;;;;;;6136185;23;20022;-89
2023/05/22 04:28:23;;;;;;;25.63;20.13;;;13.10;93.10;;;;;;6116534;23;20026;-89
2023/05/22 04:31:14;;;;;;;24.70;19.00;;;13.10;99.90;;;;;;6138544;23;20036;-89
2023/05/22 04:34:02;;;;;;;25.08;18.63;;;13.10;99.90;;;;;;6117093;23;20025;-89
2023/05/22 04:36:50;;;;;;;25.35;19.65;;;13.30;1.00;;;;;;6108224;23;20037;-90
2023/05/22 04:39:39;;;;;;;22.38;17.75;;;13.30;63.70;;;;;;6130929;23;20022;-88
2023/05/22 04:42:27;;;;;;;25.38;19.15;;;13.50;99.90;;;;;;6109028;23;20103;-90
2023/05/22 04:45:14;;;;;;;21.67;18.10;;;13.60;99.90;;;;;;6107575;23;20049;-89
2023/05/22 04:48:01;;;;;;;21.60;17.58;;;13.70;99.90;;;;;;6108367;23;20026;-89
2023/05/22 04:50:49;;;;;;;22.27;17.25;;;13.80;1.00;;;;;;6129660;23;20109;-90
2023/05/22 04:53:37;;;;;;;23.33;17.92;;;13.90;99.90;;;;;;6129184;23;20153;-88
2023/05/22 04:56:25;;;;;;;26.38;18.98;;;14.00;1.00;;;;;;6106620;23;20038;-89
2023/05/22 04:59:16;;;;;;;27.90;17.92;;;14.00;99.90;;;;;;6109070;23;20037;-90
2023/05/22 05:02:10;;;;;;;25.00;17.60;;;14.00;99.90;;;;;;6129572;23;20022;-91
2023/05/22 05:04:58;;;;;;;27.17;18.15;;;14.00;99.90;;;;;;6089237;23;20044;-90
2023/05/22 05:07:48;;;;;;;26.45;18.13;;;14.10;99.90;;;;;;6107569;23;20307;-91
2023/05/22 05:10:36;;;;;;;25.02;17.48;;;14.20;12.20;;;;;;6128449;23;20065;-88
2023/05/22 05:13:24;;;;;;;21.90;17.25;;;14.30;1.00;;;;;;6108921;23;20501;-88
2023/05/22 05:16:12;;;;;;;23.10;17.38;;;14.50;99.90;;;;;;6128834;23;20033;-88
2023/05/22 05:19:00;;;;;;;21.98;16.50;;;14.60;99.90;;;;;;6127474;23;20026;-90
2023/05/22 05:21:48;;;;;;;21.48;16.35;;;14.70;99.90;;;;;;6127436;23;20041;-91
2023/05/22 05:24:36;;;;;;;20.65;16.13;;;14.90;82.40;;;;;;6128366;23;20175;-90
2023/05/22 05:27:23;;;;;;;21.58;15.95;;;15.20;2.70;;;;;;6131207;23;20030;-91
2023/05/22 05:30:11;;;;;;;18.83;15.35;;;15.40;1.00;;;;;;6107279;23;20029;-90
2023/05/22 05:32:58;;;;;;;21.58;15.25;;;15.70;1.00;;;;;;6108743;23;20040;-90
2023/05/22 05:35:45;;;;;;;19.23;15.00;;;15.90;99.90;;;;;;6132612;23;20025;-91
2023/05/22 05:38:33;;;;;;;21.38;15.15;;;16.00;99.90;;;;;;6128306;23;20025;-89
2023/05/22 05:41:23;;;;;;;17.92;14.27;;;16.10;99.90;;;;;;6128835;23;20026;-90
2023/05/22 05:44:10;;;;;;;18.70;14.48;;;16.30;99.90;;;;;;6109692;23;20026;-89
2023/05/22 05:49:33;;;;;;;20.42;13.95;;;16.60;1.00;;;;;;6198091;22;20029;-88
2023/05/22 05:52:26;;;;;;;16.83;13.50;;;16.80;1.00;;;;;;6221496;23;20411;-83
2023/05/22 05:55:13;;;;;;;18.05;14.55;;;16.70;99.90;;;;;;6265676;22;20023;-86
2023/05/22 05:58:00;;;;;;;17.83;14.52;;;16.60;99.90;;;;;;6218171;23;20040;-86
2023/05/22 06:00:47;;;;;;;16.88;13.65;;;16.60;99.90;;;;;;6215554;23;20024;-85
2023/05/22 06:03:35;;;;;;;23.60;15.60;;;16.70;99.90;;;;;;6192008;23;20312;-87
2023/05/22 06:06:24;;;;;;;21.70;15.13;;;16.80;1.00;;;;;;6193386;23;20052;-84
2023/05/22 06:09:24;;;;;;;22.88;16.70;;;16.90;1.00;;;;;;6191936;23;20028;-86
2023/05/22 06:12:12;;;;;;;24.80;17.02;;;17.10;1.00;;;;;;6212402;23;20029;-83
2023/05/22 06:15:04;;;;;;;20.02;14.95;;;17.30;99.90;;;;;;6193478;23;20036;-90
2023/05/22 06:17:55;;;;;;;23.95;15.43;;;17.60;99.90;;;;;;6190200;23;20103;-86
2023/05/22 06:20:44;;;;;;;20.38;14.65;;;17.80;99.90;;;;;;6193006;23;20029;-90
2023/05/22 06:23:48;;;;;;;18.42;13.88;;;17.90;99.90;;;;;;6190990;23;20028;-89
2023/05/22 06:26:46;;;;;;;;;;;;;;;;;;;;;
2023/05/22 06:29:58;;;;;;;19.50;14.57;;;17.90;99.90;;;;;;6211924;23;20032;-91
2023/05/22 06:33:24;;;;;;;;;;;;;;;;;;;;;
2023/05/22 06:36:30;;;;;;;20.10;15.57;;;17.80;99.90;;;;;;6090008;23;20035;-88
2023/05/22 06:39:59;;;;;;;19.23;15.40;;;17.90;99.90;;;;;;5979220;23;20621;-91
2023/05/22 06:43:13;;;;;;;25.45;16.50;;;17.80;99.90;;;;;;5941641;24;20115;-86
2023/05/22 06:46:05;;;;;;;20.95;15.80;;;17.60;99.90;;;;;;5972629;23;20032;-89
2023/05/22 06:48:55;;;;;;;21.42;15.73;;;17.40;99.90;;;;;;6105932;23;20695;-89
2023/05/22 06:52:00;;;;;;;21.40;16.15;;;17.30;99.90;;;;;;6192621;23;20083;-90
2023/05/22 06:55:40;;;;;;;17.60;14.30;;;17.00;99.90;;;;;;6213761;23;20044;-90
2023/05/22 06:58:36;;;;;;;20.42;16.10;;;17.00;99.90;;;;;;6213773;23;20048;-88
2023/05/22 07:01:24;;;;;;;19.98;15.20;;;17.00;1.00;;;;;;6213557;23;20139;-88
2023/05/22 07:04:14;;;;;;;18.60;15.23;;;17.10;1.00;;;;;;6215244;23;20110;-88
2023/05/22 07:07:01;;;;;;;19.25;15.00;;;17.10;1.00;;;;;;6217944;23;20035;-89
2023/05/22 07:09:52;;;;;;;21.02;14.10;;;17.10;1.00;;;;;;6211818;23;20028;-86
2023/05/22 07:16:45;;;;;;;23.63;16.48;;;17.10;1.00;;;;;;6186942;23;20073;-89
2023/05/22 07:19:35;;;;;;;22.30;16.00;;;17.00;1.00;;;;;;6209308;23;20024;-87
2023/05/22 07:22:32;;;;;;;20.20;15.18;;;17.00;19.80;;;;;;6211810;23;20025;-86
2023/05/22 07:25:34;;;;;;;;;;;;;;;;;;;;;
2023/05/22 07:28:38;;;;;;;19.77;14.65;;;17.30;1.00;;;;;;6213243;23;20067;-87
2023/05/22 07:31:33;;;;;;;21.65;14.73;;;17.50;1.00;;;;;;6208578;23;20383;-88
2023/05/22 07:34:22;;;;;;;17.73;13.98;;;17.80;1.00;;;;;;6213343;23;20033;-87
2023/05/22 07:37:12;;;;;;;21.00;14.98;;;18.00;99.90;;;;;;6214450;23;20028;-87
2023/05/22 07:40:10;;;;;;;18.25;13.68;;;18.20;99.90;;;;;;6192851;23;20049;-89
2023/05/22 07:43:00;;;;;;;16.33;12.95;;;18.30;99.90;;;;;;6213624;23;20036;-89
2023/05/22 07:45:55;;;;;;;15.50;13.15;;;18.70;99.90;;;;;;6212822;23;20462;-89
2023/05/22 07:48:57;;;;;;;17.88;12.80;;;18.90;99.90;;;;;;6212899;23;20414;-85
2023/05/22 07:51:45;;;;;;;17.45;13.60;;;19.30;81.00;;;;;;6214898;23;20031;-87
2023/05/22 07:54:36;;;;;;;16.38;12.73;;;19.60;1.90;;;;;;6222228;23;20028;-89
2023/05/22 07:57:47;;;;;;;17.77;13.13;;;20.00;1.00;;;;;;6182698;22;20101;-89
2023/05/22 08:00:41;;;;;;;19.45;13.60;;;20.30;1.00;;;;;;6245161;23;20091;-89
2023/05/22 08:03:38;;;;;;;16.40;12.40;;;20.50;1.00;;;;;;6252188;22;20024;-88
2023/05/22 08:07:19;;;;;;;15.80;12.75;;;20.80;1.00;;;;;;6244362;23;20039;-91
2023/05/22 08:10:16;;;;;;;16.80;12.23;;;21.00;1.00;;;;;;6245421;23;20032;-89
2023/05/22 08:13:40;;;;;;;;;;;;;;;;;;;;;
2023/05/22 08:17:13;;;;;;;16.30;13.27;;;21.10;1.00;;;;;;6247363;23;20028;-91
2023/05/22 08:29:19;;;;;;;;;;;;;;;;;;;;;
2023/05/22 08:32:27;;;;;;;15.15;10.88;;;25.60;99.90;;;;;;6213211;23;20203;-85
2023/05/22 08:35:56;;;;;;;11.95;9.15;;;27.00;99.90;;;;;;6135917;23;20038;-86
2023/05/22 08:45:06;;;;;;;9.77;8.77;;;28.70;99.90;;;;;;6277400;22;20028;-89
2023/05/22 08:52:49;;;;;;;10.68;9.32;;;28.90;99.90;;;;;;6211902;22;20058;-89
2023/05/22 09:03:55;;;;;;;13.60;9.40;;;27.00;99.90;;;;;;6166396;23;20021;-86
2023/05/22 09:14:21;;;;;;;11.35;10.00;;;25.90;99.90;;;;;;6253544;23;20091;-92
2023/05/22 09:17:54;;;;;;;;;;;;;;;;;;;;;
2023/05/22 09:20:43;;;;;;;;;;;26.20;99.90;;;;;;6124972;23;20300;-86
2023/05/22 09:23:33;;;;;;;13.02;8.55;;;27.10;99.90;;;;;;6184404;22;19919;-88
2023/05/22 09:26:26;;;;;;;11.57;8.73;;;27.60;99.90;;;;;;6222614;23;20102;-90
2023/05/22 09:29:55;;;;;;;10.25;9.13;;;28.20;99.90;;;;;;6230031;23;20092;-90
2023/05/22 09:32:47;;;;;;;9.52;8.32;;;28.30;99.90;;;;;;6221678;23;20031;-87
2023/05/22 09:36:00;;;;;;;9.63;8.07;;;28.80;99.90;;;;;;6222646;23;20043;-90
2023/05/22 09:47:30;;;;;;;;;;;;;;;;;;;;;
2023/05/22 09:54:33;;;;;;;10.43;8.45;;;30.90;1.00;;;;;;6134996;23;20033;-87
2023/05/22 09:57:40;;;;;;;10.60;8.93;;;30.00;1.00;;;;;;6216234;23;20046;-87
2023/05/22 10:00:33;;;;;;;10.13;8.93;;;29.20;99.90;;;;;;6224879;23;20078;-87
2023/05/22 10:03:43;;;;;;;10.07;8.25;;;29.10;99.90;;;;;;6229079;23;20024;-90
2023/05/22 10:06:35;;;;;;;12.77;8.38;;;30.40;99.90;;;;;;6221666;23;20020;-88
2023/05/22 10:09:29;;;;;;;11.57;9.13;;;31.20;99.90;;;;;;6220533;23;20114;-85
2023/05/22 10:12:22;;;;;;;11.38;8.05;;;31.50;99.90;;;;;;6222156;23;20024;-85
2023/05/22 10:15:10;;;;;;;;;;;32.20;99.90;;;;;;6223055;23;20088;-86
2023/05/22 10:18:00;;;;;;;9.50;7.85;;;32.50;1.00;;;;;;6222608;23;19915;-84
2023/05/22 10:20:48;;;;;;;8.73;7.82;;;33.20;1.00;;;;;;6221714;23;20020;-85
2023/05/22 10:23:36;;;;;;;11.05;8.70;;;33.00;99.90;;;;;;6222375;23;20024;-85
2023/05/22 10:26:30;;;;;;;10.77;7.95;;;32.50;99.90;;;;;;6223500;23;20342;-84
2023/05/22 10:29:28;;;;;;;15.27;7.68;;;32.30;99.90;;;;;;6242402;23;20024;-87
2023/05/22 10:32:40;;;;;;;9.45;7.47;;;32.50;99.90;;;;;;6220094;23;20043;-85
2023/05/22 10:35:57;;;;;;;9.57;8.25;;;33.10;99.90;;;;;;6222065;23;20020;-84
2023/05/22 10:39:31;;;;;;;16.90;8.75;;;33.50;99.90;;;;;;6220746;23;20031;-83
2023/05/22 10:42:20;;;;;;;8.63;7.72;;;33.50;1.00;;;;;;6161622;23;20443;-85
2023/05/22 10:45:14;;;;;;;10.00;7.53;;;33.10;1.00;;;;;;6223640;23;20331;-85
2023/05/22 10:48:29;;;;;;;10.30;8.20;;;33.00;1.00;;;;;;6227312;23;20462;-88
2023/05/22 10:52:00;;;;;;;;;;;;;;;;;;;;;
2023/05/22 10:54:53;;;;;;;8.68;7.32;;;33.40;1.00;;;;;;6249668;23;20024;-86
2023/05/22 10:57:55;;;;;;;8.55;7.65;;;33.90;1.00;;;;;;6227942;23;20291;-88
2023/05/22 11:01:11;;;;;;;9.95;7.38;;;34.10;99.90;;;;;;6227268;23;20103;-86
2023/05/22 11:04:26;;;;;;;7.15;6.45;;;34.70;15.30;;;;;;6156870;23;20306;-90
2023/05/22 11:07:20;;;;;;;8.88;7.82;;;35.20;99.90;;;;;;6151564;23;20168;-89
2023/05/22 11:10:28;;;;;;;8.98;7.30;;;34.90;1.00;;;;;;6148500;23;20044;-86
2023/05/22 11:13:19;;;;;;;10.25;7.70;;;34.60;99.90;;;;;;6150832;23;20341;-88
2023/05/22 11:16:09;;;;;;;9.60;7.72;;;34.30;99.90;;;;;;6132516;23;20121;-89
2023/05/22 11:19:07;;;;;;;9.73;7.95;;;34.70;1.00;;;;;;6151325;23;20140;-87
2023/05/22 11:22:22;;;;;;;9.25;7.70;;;34.90;99.90;;;;;;6195306;23;20431;-85
2023/05/22 11:25:15;;;;;;;9.95;7.45;;;34.50;99.90;;;;;;6220559;23;20020;-87
2023/05/22 11:28:04;;;;;;;8.38;6.68;;;34.70;99.90;;;;;;6220756;23;20380;-86
2023/05/22 11:30:55;;;;;;;12.40;7.28;;;35.20;99.90;;;;;;6223127;23;20075;-87
2023/05/22 11:33:47;;;;;;;7.95;6.85;;;35.00;99.90;;;;;;6225002;23;20039;-86
2023/05/22 11:36:50;;;;;;;9.77;7.28;;;34.90;99.90;;;;;;6227310;23;20028;-89
2023/05/22 11:39:38;;;;;;;8.75;7.40;;;33.60;99.90;;;;;;6223344;23;20070;-85
2023/05/22 11:42:31;;;;;;;8.63;7.40;;;33.40;99.90;;;;;;6224494;23;20035;-86
2023/05/22 11:45:23;;;;;;;9.35;7.07;;;34.00;99.90;;;;;;6223416;23;20025;-85
2023/05/22 11:48:14;;;;;;;10.02;7.40;;;34.60;99.90;;;;;;6221230;23;20555;-85
2023/05/22 11:51:05;;;;;;;9.50;7.53;;;35.70;99.90;;;;;;6222898;23;20024;-86
2023/05/22 11:53:56;;;;;;;8.90;7.57;;;36.30;99.90;;;;;;6224138;23;20082;-85
2023/05/22 11:56:47;;;;;;;8.38;6.88;;;36.90;99.90;;;;;;6222564;23;20028;-88
2023/05/22 11:59:52;;;;;;;9.18;7.60;;;35.80;99.90;;;;;;6222711;23;20111;-88
2023/05/22 12:04:01;;;;;;;;;;;;;;;;;;;;;
2023/05/22 12:06:55;;;;;;;8.80;7.30;;;35.50;99.90;;;;;;6244973;23;20043;-87
2023/05/22 12:09:55;;;;;;;9.20;7.67;;;36.80;99.90;;;;;;6227473;23;20032;-89
2023/05/22 12:12:49;;;;;;;8.20;7.40;;;36.20;99.90;;;;;;6222981;23;20404;-89
2023/05/22 12:15:58;;;;;;;9.63;7.53;;;34.70;1.00;;;;;;6227269;23;20020;-87
2023/05/22 12:19:08;;;;;;;8.55;7.47;;;34.00;99.90;;;;;;6224557;23;20020;-87
2023/05/22 12:22:55;;;;;;;12.35;8.50;;;33.20;99.90;;;;;;6179004;23;20119;-90
2023/05/22 12:25:44;;;;;;;9.25;8.20;;;31.50;1.00;;;;;;6225057;23;20028;-91
2023/05/22 12:28:38;;;;;;;9.88;8.43;;;29.90;1.00;;;;;;6223612;23;20392;-87
2023/05/22 12:31:36;;;;;;;10.23;8.63;;;29.00;99.90;;;;;;6219267;23;20047;-89
2023/05/22 12:34:46;;;;;;;11.50;8.13;;;28.30;99.90;;;;;;6223400;23;20024;-89
2023/05/22 12:37:39;;;;;;;13.27;9.43;;;27.90;99.90;;;;;;6222696;23;20020;-88
2023/05/22 12:40:43;;;;;;;10.55;8.65;;;27.70;99.90;;;;;;6224650;22;20114;-86
2023/05/22 12:43:57;;;;;;;11.57;9.27;;;27.30;99.90;;;;;;6230436;23;20032;-90
2023/05/22 12:47:03;;;;;;;10.52;8.38;;;27.10;99.90;;;;;;6224230;23;20020;-89
2023/05/22 12:50:11;;;;;;;10.52;8.43;;;27.00;99.90;;;;;;6221209;23;20023;-88
2023/05/22 12:53:09;;;;;;;11.95;8.40;;;27.00;99.90;;;;;;6221210;23;20035;-85
2023/05/22 12:56:21;;;;;;;11.70;7.75;;;27.10;99.90;;;;;;6224675;23;20113;-89
2023/05/22 12:59:31;;;;;;;13.00;7.70;;;27.20;99.90;;;;;;6105189;23;20026;-88
2023/05/22 13:02:37;;;;;;;10.52;7.95;;;26.90;99.90;;;;;;6102015;23;20513;-87
2023/05/22 13:06:14;;;;;;;8.52;7.63;;;27.10;99.90;;;;;;6019644;23;20031;-88
2023/05/22 13:09:35;;;;;;;9.88;7.22;;;27.10;99.90;;;;;;6018451;23;20039;-93
2023/05/22 13:12:35;;;;;;;10.85;7.93;;;27.10;99.90;;;;;;6017121;23;20058;-89
2023/05/22 13:16:12;;;;;;;;;;;;;;;;;;;;;
2023/05/22 13:19:50;;;;;;;15.52;8.00;;;27.80;99.90;;;;;;6182194;23;20025;-89
2023/05/22 13:32:32;;;;;;;;;;;;;;;;;;;;;
2023/05/22 13:41:16;;;;;;;;;;;;;;;;;;;;;
2023/05/22 13:48:11;;;;;;;9.07;5.25;;;23.10;99.90;;;;;;5832975;24;20016;-90
2023/05/22 13:59:34;;;;;;;;;;;;;;;;;;;;;
2023/05/22 14:02:50;;;;;;;19.30;7.75;;;20.20;99.90;;;;;;6007858;23;20024;-87
2023/05/22 14:06:25;;;;;;;17.77;8.98;;;19.60;99.90;;;;;;5883470;24;20025;-91
2023/05/22 14:09:27;;;;;;;21.25;12.45;;;18.90;1.00;;;;;;5906377;24;20113;-88
2023/05/22 14:12:47;;;;;;;;;;;;;;;;;;;;;
2023/05/22 14:15:45;;;;;;;15.55;10.07;;;17.90;96.80;;;;;;5950383;24;20032;-88
2023/05/22 14:27:24;;;;;;;11.10;8.85;;;17.50;86.10;;;;;;5901863;24;20407;-92
2023/05/22 14:30:29;;;;;;;11.38;8.45;;;17.50;1.00;;;;;;5918988;24;20028;-89
2023/05/22 14:33:40;;;;;;;11.65;8.48;;;17.60;1.00;;;;;;5935793;24;20505;-89
2023/05/22 14:36:31;;;;;;;12.05;9.77;;;17.60;58.90;;;;;;6039102;23;20366;-91
2023/05/22 14:39:21;;;;;;;12.35;8.77;;;17.70;99.90;;;;;;6105130;23;20337;-90
2023/05/22 14:42:09;;;;;;;13.13;8.25;;;17.90;33.80;;;;;;6104700;23;20072;-88
2023/05/22 14:44:57;;;;;;;10.52;9.13;;;18.10;1.00;;;;;;6104285;23;20076;-91
2023/05/22 14:47:45;;;;;;;11.27;8.85;;;18.40;1.00;;;;;;6107482;23;20630;-93
2023/05/22 14:50:54;;;;;;;12.30;8.98;;;18.50;1.00;;;;;;6109722;23;20033;-92
2023/05/22 14:54:20;;;;;;;;;;;;;;;;;;;;;
2023/05/22 14:57:22;;;;;;;11.30;9.70;;;18.40;1.00;;;;;;6127562;23;20037;-89
2023/05/22 15:00:11;;;;;;;16.23;11.38;;;18.50;99.90;;;;;;6108506;23;20065;-89
2023/05/22 15:03:22;;;;;;;16.25;11.02;;;18.60;99.90;;;;;;6109745;23;20054;-92
2023/05/22 15:06:22;;;;;;;13.30;11.07;;;18.80;1.00;;;;;;6108552;23;20026;-90
2023/05/22 15:09:16;;;;;;;19.98;10.75;;;18.80;1.00;;;;;;6108741;23;20033;-92
2023/05/22 15:12:05;;;;;;;17.52;10.40;;;18.90;1.00;;;;;;6108271;23;20086;-90
2023/05/22 15:14:52;;;;;;;12.70;10.52;;;18.90;99.90;;;;;;6110321;23;20038;-90
2023/05/22 15:17:43;;;;;;;14.32;10.05;;;18.90;1.00;;;;;;6111101;23;20030;-89
2023/05/22 15:20:39;;;;;;;13.80;9.70;;;18.90;1.00;;;;;;6126186;23;20429;-91
2023/05/22 15:23:29;;;;;;;13.02;9.90;;;18.90;99.90;;;;;;6114389;23;20037;-90
2023/05/22 15:26:17;;;;;;;13.10;9.20;;;19.00;99.90;;;;;;6099893;23;20093;-89
2023/05/22 15:29:07;;;;;;;12.98;8.40;;;19.00;99.90;;;;;;6118804;23;20018;-91
2023/05/22 15:31:59;;;;;;;13.75;7.97;;;19.10;99.90;;;;;;6121153;23;20022;-91
2023/05/22 15:35:00;;;;;;;11.40;7.32;;;19.10;99.90;;;;;;6124174;23;20032;-87
2023/05/22 15:38:11;;;;;;;9.55;7.50;;;19.20;99.90;;;;;;6131383;23;20073;-89
2023/05/22 15:41:18;;;;;;;9.75;7.38;;;19.30;99.90;;;;;;6125041;23;20010;-90
2023/05/22 15:44:23;;;;;;;8.00;6.90;;;19.40;99.90;;;;;;6111497;23;20462;-90
2023/05/22 15:47:25;;;;;;;7.45;6.45;;;19.50;99.90;;;;;;6118606;23;20101;-90
2023/05/22 15:50:13;;;;;;;8.18;6.35;;;19.60;99.90;;;;;;6092587;23;20025;-91
2023/05/22 15:53:01;;;;;;;7.88;6.18;;;19.70;99.90;;;;;;6110568;23;20045;-91
2023/05/22 15:55:53;;;;;;;7.55;6.00;;;19.80;99.90;;;;;;6111377;23;20041;-92
2023/05/22 15:58:58;;;;;;;8.38;6.03;;;19.90;99.90;;;;;;6132658;23;20026;-91
2023/05/22 16:02:06;;;;;;;8.43;5.88;;;20.00;99.90;;;;;;6111048;23;20130;-90
2023/05/22 16:04:57;;;;;;;9.85;5.88;;;20.40;99.90;;;;;;6126580;23;20089;-93
2023/05/22 16:07:48;;;;;;;8.40;6.30;;;20.90;99.90;;;;;;6108034;23;20500;-93
2023/05/22 16:10:45;;;;;;;8.18;5.75;;;21.20;99.90;;;;;;6066442;23;20188;-91
2023/05/22 16:13:56;;;;;;;8.25;6.82;;;21.40;99.90;;;;;;6084739;23;20031;-89
2023/05/22 16:16:47;;;;;;;9.90;6.90;;;21.70;99.90;;;;;;6082589;23;20466;-91
2023/05/22 16:19:34;;;;;;;11.48;6.47;;;21.90;99.90;;;;;;6076756;23;20030;-90
2023/05/22 16:22:24;;;;;;;9.75;6.35;;;21.90;99.90;;;;;;6076854;23;20098;-89
2023/05/22 16:25:37;;;;;;;10.23;6.53;;;22.20;99.90;;;;;;6083093;23;20082;-91
2023/05/22 16:28:29;;;;;;;8.52;5.60;;;22.60;99.90;;;;;;6078140;23;20038;-91
2023/05/22 16:32:04;;;;;;;;;;;;;;;;;;;;;
2023/05/22 16:35:30;;;;;;;6.33;5.73;;;23.60;99.90;;;;;;5982438;24;20032;-91
2023/05/22 16:38:18;;;;;;;7.75;6.68;;;24.10;94.70;;;;;;6001760;23;20725;-90
2023/05/22 16:41:06;;;;;;;12.70;7.22;;;23.20;99.90;;;;;;6001739;23;20138;-92
2023/05/22 16:43:55;;;;;;;11.48;7.20;;;22.00;99.90;;;;;;6001240;23;20433;-90
2023/05/22 16:46:45;;;;;;;8.02;7.22;;;21.20;99.90;;;;;;6002390;23;20150;-90
2023/05/22 16:49:41;;;;;;;7.75;6.72;;;20.90;99.90;;;;;;6003303;23;20043;-90
2023/05/22 16:53:20;;;;;;;;;;;;;;;;;;;;;
2023/05/22 16:56:41;;;;;;;9.18;7.57;;;20.90;99.90;;;;;;6019746;23;20617;-92
2023/05/22 16:59:56;;;;;;;8.90;7.20;;;21.10;99.90;;;;;;5996125;23;20035;-93
2023/05/22 17:02:44;;;;;;;8.95;7.53;;;21.10;99.90;;;;;;5993345;23;20032;-92